UPSVAC Airport Information Service

Oslo Airport, Gardermoen

ICAO: ENGM Country: Norway, EU
Latitude: 60.1939 Longitude: 11.1004
Latest Arrival : UPSE100 (EDDK-ENGM) Latest Departure : UPSE161 (ENGM-EDDK)


WX CaptureLIVE
Data provided by noaa.gov | Fetched at 21:15:51

METAR : ENGM 272050Z 21004KT 140V280 CAVOK 02/M02 Q1028 NOSIG

TAF : ENGM 271700Z 2718/2818 29007KT CAVOK


Runway Data for ENGM
Data provided by openaviationdata.com

Runway ID Mag Var Hdg Length Elevation Surface ILS Freq ILS Id ILS Slope
01L 2 13° 11784 ft 681 ft Asphalt 110.3 OBW 3
01R 2 13° 9656 ft 681 ft Asphalt 111.95 ONE 3
19L 2 193° 9656 ft 681 ft Asphalt 110.55 GME 3
19R 2 193° 11784 ft 681 ft Asphalt 111.3 GSW 3

Oslo Airport, Gardermoen, Norway, EU
Use only for reference purposes



Not for navigational purposes.